Time;durP1;ratioP1;P1;durP2;ratioP2;P2;SDS_P1;SDS_P2;PMS_P1;PMS_P2;Temp;Humidity;BMP_temperature;BMP_pressure;BME280_temperature;BME280_humidity;BME280_pressure;Samples;Min_cycle;Max_cycle;Signal;HPM_P1;HPM_P2
2023/09/23 00:02:08;;;;;;;2.00;0.87;;;;;;;;;;4952472;28;20194;-72
2023/09/23 00:04:34;;;;;;;1.30;1.20;;;;;;;;;;4953574;28;20187;-72
2023/09/23 00:06:59;;;;;;;0.93;0.93;;;;;;;;;;4952620;28;20212;-72
2023/09/23 00:09:24;;;;;;;1.20;1.10;;;;;;;;;;4952865;28;20238;-72
2023/09/23 00:11:49;;;;;;;1.00;1.00;;;;;;;;;;4951942;28;20230;-73
2023/09/23 00:14:15;;;;;;;1.17;1.03;;;;;;;;;;4953283;28;20188;-72
2023/09/23 00:16:40;;;;;;;1.17;1.07;;;;;;;;;;4949673;28;20181;-72
2023/09/23 00:19:08;;;;;;;0.73;0.73;;;;;;;;;;4950272;28;20207;-73
2023/09/23 00:21:34;;;;;;;1.10;1.00;;;;;;;;;;4950233;28;20227;-72
2023/09/23 00:24:01;;;;;;;1.80;1.00;;;;;;;;;;4952841;28;20247;-72
2023/09/23 00:26:26;;;;;;;0.70;0.70;;;;;;;;;;4948019;28;20315;-72
2023/09/23 00:28:52;;;;;;;1.10;1.00;;;;;;;;;;4950745;28;20271;-72
2023/09/23 00:31:18;;;;;;;0.87;0.83;;;;;;;;;;4952218;28;20375;-72
2023/09/23 00:33:44;;;;;;;1.20;1.00;;;;;;;;;;4946768;28;20212;-72
2023/09/23 00:36:10;;;;;;;2.57;0.90;;;;;;;;;;4948351;28;20244;-72
2023/09/23 00:38:38;;;;;;;0.80;0.80;;;;;;;;;;4948236;28;20168;-72
2023/09/23 00:41:08;;;;;;;0.90;0.90;;;;;;;;;;4950523;28;20218;-72
2023/09/23 00:43:33;;;;;;;1.10;0.90;;;;;;;;;;4950251;28;20195;-72
2023/09/23 00:45:59;;;;;;;0.90;0.90;;;;;;;;;;4952536;28;20183;-72
2023/09/23 00:48:25;;;;;;;1.23;1.10;;;;;;;;;;4946333;28;20203;-73
2023/09/23 00:50:52;;;;;;;0.90;0.90;;;;;;;;;;4950638;28;20180;-72
2023/09/23 00:53:17;;;;;;;1.17;1.07;;;;;;;;;;4945132;28;20194;-72
2023/09/23 00:55:51;;;;;;;1.47;1.10;;;;;;;;;;4949109;28;20180;-72
2023/09/23 00:58:20;;;;;;;1.07;1.07;;;;;;;;;;4945486;28;20192;-72
2023/09/23 01:00:45;;;;;;;1.03;1.00;;;;;;;;;;4957087;28;20340;-72
2023/09/23 01:03:11;;;;;;;1.53;1.00;;;;;;;;;;4956992;28;20259;-72
2023/09/23 01:05:36;;;;;;;1.07;0.97;;;;;;;;;;4967895;28;20183;-72
2023/09/23 01:08:05;;;;;;;2.20;1.10;;;;;;;;;;4971595;28;20230;-72
2023/09/23 01:10:31;;;;;;;0.80;0.80;;;;;;;;;;4969891;28;20179;-72
2023/09/23 01:12:57;;;;;;;1.20;1.10;;;;;;;;;;4953219;28;20305;-72
2023/09/23 01:15:25;;;;;;;1.63;1.00;;;;;;;;;;4954297;28;20264;-72
2023/09/23 01:17:53;;;;;;;1.20;1.10;;;;;;;;;;4968151;28;20185;-72
2023/09/23 01:20:19;;;;;;;1.43;1.00;;;;;;;;;;4968566;28;20239;-73
2023/09/23 01:22:47;;;;;;;1.67;0.90;;;;;;;;;;4950457;28;20191;-72
2023/09/23 01:25:12;;;;;;;2.93;1.23;;;;;;;;;;4968630;28;20202;-72
2023/09/23 01:27:37;;;;;;;1.20;1.00;;;;;;;;;;4967221;28;20186;-72
2023/09/23 01:30:04;;;;;;;0.87;0.87;;;;;;;;;;4952322;28;20187;-72
2023/09/23 01:32:34;;;;;;;1.20;1.10;;;;;;;;;;4950782;28;20201;-72
2023/09/23 01:35:03;;;;;;;1.83;1.00;;;;;;;;;;4966735;28;20186;-72
2023/09/23 01:37:29;;;;;;;1.57;0.90;;;;;;;;;;4966605;28;20227;-73
2023/09/23 01:39:54;;;;;;;1.10;1.00;;;;;;;;;;4966521;28;20281;-72
2023/09/23 01:42:20;;;;;;;1.10;1.00;;;;;;;;;;4969381;28;20213;-71
2023/09/23 01:44:46;;;;;;;1.27;1.17;;;;;;;;;;4969169;28;20191;-72
2023/09/23 01:47:11;;;;;;;2.40;1.03;;;;;;;;;;4973005;28;20182;-73
2023/09/23 01:49:37;;;;;;;1.30;1.20;;;;;;;;;;4946485;28;20186;-72
2023/09/23 01:52:03;;;;;;;1.23;1.10;;;;;;;;;;4968648;28;20220;-72
2023/09/23 01:54:28;;;;;;;1.37;1.00;;;;;;;;;;4964378;28;20217;-73
2023/09/23 01:56:54;;;;;;;1.20;1.10;;;;;;;;;;4963309;28;20225;-72
2023/09/23 01:59:20;;;;;;;0.90;0.90;;;;;;;;;;4950748;28;20233;-72
2023/09/23 02:01:45;;;;;;;1.50;1.13;;;;;;;;;;4968437;28;20179;-72
2023/09/23 02:04:11;;;;;;;0.90;0.90;;;;;;;;;;4969950;28;20178;-72
2023/09/23 02:06:40;;;;;;;1.03;0.93;;;;;;;;;;4954610;28;20182;-72
2023/09/23 02:09:08;;;;;;;1.00;1.00;;;;;;;;;;4957298;28;20212;-72
2023/09/23 02:11:34;;;;;;;1.00;1.00;;;;;;;;;;4968453;28;20265;-72
2023/09/23 02:14:01;;;;;;;1.10;1.00;;;;;;;;;;4972265;28;20347;-72
2023/09/23 02:16:26;;;;;;;1.13;1.03;;;;;;;;;;4971664;28;20181;-72
2023/09/23 02:18:51;;;;;;;1.10;1.00;;;;;;;;;;4953491;28;20181;-72
2023/09/23 02:21:18;;;;;;;1.23;1.13;;;;;;;;;;4952594;28;20186;-72
2023/09/23 02:23:43;;;;;;;0.90;0.90;;;;;;;;;;4954636;28;20181;-72
2023/09/23 02:26:09;;;;;;;1.60;1.17;;;;;;;;;;4955285;28;20232;-73
2023/09/23 02:28:34;;;;;;;1.90;1.00;;;;;;;;;;4953199;28;20254;-72
2023/09/23 02:30:59;;;;;;;1.43;1.30;;;;;;;;;;4951710;28;20229;-72
2023/09/23 02:33:25;;;;;;;1.50;1.30;;;;;;;;;;4952287;28;20306;-72
2023/09/23 02:35:52;;;;;;;2.87;1.30;;;;;;;;;;4951384;28;20224;-72
2023/09/23 02:38:18;;;;;;;1.20;1.10;;;;;;;;;;4959216;28;20201;-72
2023/09/23 02:40:44;;;;;;;3.57;1.13;;;;;;;;;;4951392;28;20185;-72
2023/09/23 02:43:09;;;;;;;1.63;1.30;;;;;;;;;;4952792;28;20516;-72
2023/09/23 02:45:34;;;;;;;2.07;1.20;;;;;;;;;;4952616;28;20173;-72
2023/09/23 02:47:59;;;;;;;1.07;1.07;;;;;;;;;;4954735;28;20202;-72
2023/09/23 02:50:25;;;;;;;1.20;1.10;;;;;;;;;;4964419;28;20193;-72
2023/09/23 02:52:51;;;;;;;2.50;1.20;;;;;;;;;;4966502;28;20201;-72
2023/09/23 02:55:18;;;;;;;1.43;1.33;;;;;;;;;;4969207;28;20957;-72
2023/09/23 02:57:54;;;;;;;1.10;1.00;;;;;;;;;;4949285;28;20182;-72
2023/09/23 03:00:20;;;;;;;1.10;1.00;;;;;;;;;;4969407;28;20222;-72
2023/09/23 03:02:55;;;;;;;1.33;0.90;;;;;;;;;;4971529;28;20170;-72
2023/09/23 03:05:27;;;;;;;1.47;1.00;;;;;;;;;;4972199;28;20190;-72
2023/09/23 03:07:55;;;;;;;1.47;1.10;;;;;;;;;;4972795;28;20233;-72
2023/09/23 03:10:31;;;;;;;0.93;0.93;;;;;;;;;;4970477;28;20184;-73
2023/09/23 03:13:02;;;;;;;0.77;0.77;;;;;;;;;;4966063;28;20207;-72
2023/09/23 03:15:33;;;;;;;1.20;1.03;;;;;;;;;;4969960;28;20171;-72
2023/09/23 03:18:00;;;;;;;1.63;1.20;;;;;;;;;;4955683;28;20214;-72
2023/09/23 03:20:26;;;;;;;1.27;1.17;;;;;;;;;;4955220;28;20200;-72
2023/09/23 03:22:52;;;;;;;1.07;1.00;;;;;;;;;;4956092;28;20177;-72
2023/09/23 03:25:18;;;;;;;1.60;1.23;;;;;;;;;;4971801;28;20194;-72
2023/09/23 03:27:43;;;;;;;1.17;1.07;;;;;;;;;;4974358;28;20187;-72
2023/09/23 03:30:12;;;;;;;3.30;1.20;;;;;;;;;;4952419;28;20269;-72
2023/09/23 03:32:38;;;;;;;1.67;1.07;;;;;;;;;;4971031;28;20230;-72
2023/09/23 03:35:03;;;;;;;1.00;1.00;;;;;;;;;;4956103;28;20184;-72
2023/09/23 03:37:29;;;;;;;1.53;1.20;;;;;;;;;;4972663;28;20220;-73
2023/09/23 03:39:55;;;;;;;1.30;1.20;;;;;;;;;;4976822;28;20178;-72
2023/09/23 03:42:21;;;;;;;1.57;1.23;;;;;;;;;;4969803;28;20259;-72
2023/09/23 03:44:46;;;;;;;1.73;1.00;;;;;;;;;;4955893;28;20185;-72
2023/09/23 03:47:11;;;;;;;0.80;0.80;;;;;;;;;;4954239;28;20329;-72
2023/09/23 03:49:36;;;;;;;1.17;1.07;;;;;;;;;;4951748;28;20216;-72
2023/09/23 03:52:05;;;;;;;1.30;1.20;;;;;;;;;;4952220;28;20193;-72
2023/09/23 03:54:33;;;;;;;0.87;0.87;;;;;;;;;;4971929;28;20233;-72
2023/09/23 03:56:58;;;;;;;1.60;1.20;;;;;;;;;;4968307;28;20257;-72
2023/09/23 03:59:23;;;;;;;1.93;1.00;;;;;;;;;;4969945;28;20276;-73
2023/09/23 04:01:48;;;;;;;1.23;1.00;;;;;;;;;;4954999;28;20181;-72
2023/09/23 04:04:13;;;;;;;2.50;1.07;;;;;;;;;;4972835;28;20174;-72
2023/09/23 04:06:39;;;;;;;1.80;1.10;;;;;;;;;;4956337;28;20183;-72
2023/09/23 04:09:09;;;;;;;1.20;1.10;;;;;;;;;;4954296;28;20192;-72
2023/09/23 04:11:35;;;;;;;0.93;0.90;;;;;;;;;;4954051;28;20178;-72
2023/09/23 04:14:00;;;;;;;2.87;1.20;;;;;;;;;;4948424;28;20201;-72
2023/09/23 04:16:25;;;;;;;1.57;1.20;;;;;;;;;;4969323;28;20178;-73
2023/09/23 04:18:51;;;;;;;1.33;1.23;;;;;;;;;;4956165;28;20552;-72
2023/09/23 04:21:17;;;;;;;1.00;1.00;;;;;;;;;;4953122;28;20195;-72
2023/09/23 04:23:43;;;;;;;1.20;1.10;;;;;;;;;;4955618;28;20188;-72
2023/09/23 04:26:08;;;;;;;1.80;1.57;;;;;;;;;;4953067;28;20259;-72
2023/09/23 04:28:33;;;;;;;1.87;1.57;;;;;;;;;;4958397;28;20269;-72
2023/09/23 04:30:58;;;;;;;0.90;0.90;;;;;;;;;;4969495;28;20181;-72
2023/09/23 04:33:27;;;;;;;1.23;1.13;;;;;;;;;;4974148;28;20197;-73
2023/09/23 04:35:59;;;;;;;2.33;1.43;;;;;;;;;;4959223;28;20182;-72
2023/09/23 04:38:24;;;;;;;3.50;1.37;;;;;;;;;;4954447;28;20181;-72
2023/09/23 04:40:50;;;;;;;0.97;0.97;;;;;;;;;;4970643;28;20184;-72
2023/09/23 04:43:25;;;;;;;1.80;1.20;;;;;;;;;;4954510;28;20190;-72
2023/09/23 04:45:50;;;;;;;1.87;1.67;;;;;;;;;;4952792;28;20188;-72
2023/09/23 04:48:16;;;;;;;2.83;1.30;;;;;;;;;;4949102;28;20186;-73
2023/09/23 04:50:43;;;;;;;1.70;1.00;;;;;;;;;;4959907;28;20250;-72
2023/09/23 04:53:08;;;;;;;1.67;1.40;;;;;;;;;;4968618;28;20405;-72
2023/09/23 04:55:34;;;;;;;2.83;1.50;;;;;;;;;;4952740;28;20264;-73
2023/09/23 04:57:59;;;;;;;2.23;1.40;;;;;;;;;;4952741;28;20172;-72
2023/09/23 05:00:26;;;;;;;9.97;6.03;;;;;;;;;;4952503;28;20240;-72
2023/09/23 05:02:52;;;;;;;14.60;7.37;;;;;;;;;;4953366;28;20277;-72
2023/09/23 05:05:18;;;;;;;43.43;20.57;;;;;;;;;;4954415;28;20585;-72
2023/09/23 05:07:44;;;;;;;24.27;11.30;;;;;;;;;;4956630;28;20177;-72
2023/09/23 05:10:09;;;;;;;13.37;7.87;;;;;;;;;;4951938;28;20211;-72
2023/09/23 05:12:34;;;;;;;10.43;6.17;;;;;;;;;;4950584;28;20213;-72
2023/09/23 05:15:00;;;;;;;12.67;7.13;;;;;;;;;;4956192;28;20178;-72
2023/09/23 05:17:30;;;;;;;10.07;6.53;;;;;;;;;;4969660;28;20181;-72
2023/09/23 05:19:55;;;;;;;10.37;6.03;;;;;;;;;;4953268;28;20299;-72
2023/09/23 05:22:20;;;;;;;8.97;4.67;;;;;;;;;;4963029;28;20177;-72
2023/09/23 05:24:47;;;;;;;4.23;3.00;;;;;;;;;;4964904;28;20181;-72
2023/09/23 05:27:14;;;;;;;3.97;1.90;;;;;;;;;;4963545;28;20187;-72
2023/09/23 05:29:39;;;;;;;3.17;1.63;;;;;;;;;;4954996;28;20195;-73
2023/09/23 05:32:04;;;;;;;3.63;1.30;;;;;;;;;;4947815;28;20190;-72
2023/09/23 05:34:29;;;;;;;1.20;1.10;;;;;;;;;;4958583;28;20177;-73
2023/09/23 05:36:56;;;;;;;3.20;1.70;;;;;;;;;;4941692;28;20263;-72
2023/09/23 05:39:21;;;;;;;1.50;1.40;;;;;;;;;;4948141;28;20285;-72
2023/09/23 05:41:47;;;;;;;3.00;1.60;;;;;;;;;;4942714;28;20282;-73
2023/09/23 05:44:13;;;;;;;13.97;3.47;;;;;;;;;;4945829;28;20191;-73
2023/09/23 05:46:38;;;;;;;1.63;1.33;;;;;;;;;;4962453;28;20185;-72
2023/09/23 05:49:05;;;;;;;4.97;1.77;;;;;;;;;;4962563;28;20196;-73
2023/09/23 05:51:32;;;;;;;1.43;1.33;;;;;;;;;;4942185;28;20257;-73
2023/09/23 05:53:59;;;;;;;3.67;1.60;;;;;;;;;;4965116;28;20211;-72
2023/09/23 05:56:24;;;;;;;1.20;1.10;;;;;;;;;;4948213;28;20209;-73
2023/09/23 05:58:50;;;;;;;4.83;1.50;;;;;;;;;;4951705;28;20556;-72
2023/09/23 06:01:15;;;;;;;3.20;1.30;;;;;;;;;;4971264;28;20181;-73
2023/09/23 06:03:41;;;;;;;4.77;1.40;;;;;;;;;;4949725;28;20269;-73
2023/09/23 06:06:06;;;;;;;1.43;1.33;;;;;;;;;;4944853;28;20282;-72
2023/09/23 06:08:31;;;;;;;1.30;1.20;;;;;;;;;;4966601;28;20186;-72
2023/09/23 06:11:00;;;;;;;1.30;1.20;;;;;;;;;;4958806;28;20196;-72
2023/09/23 06:13:25;;;;;;;3.13;1.53;;;;;;;;;;4949058;28;20217;-72
2023/09/23 06:15:52;;;;;;;1.87;1.30;;;;;;;;;;4951182;28;20185;-71
2023/09/23 06:18:17;;;;;;;4.60;1.93;;;;;;;;;;4944231;28;20181;-73
2023/09/23 06:20:43;;;;;;;1.43;1.20;;;;;;;;;;4950410;28;20252;-72
2023/09/23 06:23:08;;;;;;;1.00;0.90;;;;;;;;;;4942220;28;20193;-72
2023/09/23 06:25:33;;;;;;;1.40;1.30;;;;;;;;;;4950690;28;20195;-73
2023/09/23 06:27:58;;;;;;;1.40;1.30;;;;;;;;;;4966414;28;20188;-72
2023/09/23 06:30:23;;;;;;;1.40;1.30;;;;;;;;;;4950993;28;20177;-72
2023/09/23 06:32:49;;;;;;;1.90;1.20;;;;;;;;;;4950985;28;20217;-72
2023/09/23 06:35:14;;;;;;;0.87;0.87;;;;;;;;;;4954199;28;20231;-72
2023/09/23 06:37:39;;;;;;;1.50;1.30;;;;;;;;;;4961666;28;20185;-73
2023/09/23 06:40:05;;;;;;;2.37;1.97;;;;;;;;;;4953238;28;20184;-72
2023/09/23 06:42:30;;;;;;;1.40;1.30;;;;;;;;;;4946036;28;20181;-73
2023/09/23 06:44:56;;;;;;;1.43;1.30;;;;;;;;;;4950954;28;20188;-73
2023/09/23 06:47:21;;;;;;;4.20;1.30;;;;;;;;;;4971159;28;20221;-72
2023/09/23 06:49:46;;;;;;;1.43;1.17;;;;;;;;;;4956124;28;20205;-73
2023/09/23 06:52:12;;;;;;;2.63;2.43;;;;;;;;;;4968338;28;20177;-72
2023/09/23 06:54:37;;;;;;;2.63;2.43;;;;;;;;;;4952475;28;20181;-72
2023/09/23 06:57:02;;;;;;;1.47;1.37;;;;;;;;;;4956903;28;20188;-73
2023/09/23 06:59:28;;;;;;;1.73;1.40;;;;;;;;;;4970732;28;20244;-73
2023/09/23 07:01:53;;;;;;;2.07;1.30;;;;;;;;;;4956058;28;20379;-74
2023/09/23 07:04:18;;;;;;;10.87;2.30;;;;;;;;;;4968447;28;20173;-73
2023/09/23 07:06:43;;;;;;;2.30;1.10;;;;;;;;;;4968968;28;20201;-73
2023/09/23 07:09:09;;;;;;;1.47;1.37;;;;;;;;;;4963658;28;20181;-74
2023/09/23 07:11:34;;;;;;;1.77;1.50;;;;;;;;;;4974101;28;20177;-73
2023/09/23 07:14:00;;;;;;;2.07;1.23;;;;;;;;;;4969923;28;20260;-74
2023/09/23 07:16:28;;;;;;;2.53;1.20;;;;;;;;;;4970127;28;20235;-74
2023/09/23 07:18:54;;;;;;;1.77;1.00;;;;;;;;;;4951072;28;20178;-73
2023/09/23 07:21:19;;;;;;;1.20;1.10;;;;;;;;;;4966658;28;20180;-74
2023/09/23 07:23:44;;;;;;;1.70;1.30;;;;;;;;;;4971247;28;20198;-74
2023/09/23 07:26:09;;;;;;;1.73;1.40;;;;;;;;;;4971180;28;20184;-73
2023/09/23 07:28:35;;;;;;;1.10;1.00;;;;;;;;;;4952228;28;20241;-74
2023/09/23 07:31:01;;;;;;;1.17;1.07;;;;;;;;;;4975938;28;20177;-74
2023/09/23 07:33:26;;;;;;;1.43;1.13;;;;;;;;;;4974700;28;20200;-73
2023/09/23 07:35:51;;;;;;;2.70;1.47;;;;;;;;;;4962945;28;20181;-74
2023/09/23 07:38:17;;;;;;;2.40;1.30;;;;;;;;;;4953607;28;20180;-73
2023/09/23 07:40:42;;;;;;;1.67;1.30;;;;;;;;;;4963872;28;20174;-73
2023/09/23 07:43:07;;;;;;;4.10;1.20;;;;;;;;;;4960341;28;20181;-73
2023/09/23 07:45:33;;;;;;;1.23;0.93;;;;;;;;;;4971944;28;20183;-73
2023/09/23 07:47:58;;;;;;;0.97;0.97;;;;;;;;;;4977867;28;20219;-73
2023/09/23 07:50:23;;;;;;;1.90;1.30;;;;;;;;;;4954434;28;20246;-73
2023/09/23 07:52:48;;;;;;;1.20;1.10;;;;;;;;;;4954532;28;20282;-74
2023/09/23 07:55:14;;;;;;;2.73;1.43;;;;;;;;;;4957556;28;20173;-74
2023/09/23 07:57:39;;;;;;;1.57;1.47;;;;;;;;;;4959983;28;20187;-74
2023/09/23 08:00:05;;;;;;;1.90;1.10;;;;;;;;;;4971300;28;20217;-74
2023/09/23 08:02:30;;;;;;;1.47;1.10;;;;;;;;;;4972102;28;20190;-74
2023/09/23 08:04:56;;;;;;;8.10;1.83;;;;;;;;;;4971427;28;20178;-74
2023/09/23 08:07:21;;;;;;;1.73;1.20;;;;;;;;;;4969495;28;20187;-73
2023/09/23 08:09:46;;;;;;;0.80;0.80;;;;;;;;;;4956506;28;20239;-73
2023/09/23 08:12:11;;;;;;;1.80;1.30;;;;;;;;;;4971415;28;20248;-73
2023/09/23 08:14:37;;;;;;;11.13;2.83;;;;;;;;;;4945238;28;20190;-73
2023/09/23 08:17:02;;;;;;;1.43;1.33;;;;;;;;;;4953304;28;20191;-73
2023/09/23 08:19:27;;;;;;;1.60;1.10;;;;;;;;;;4971434;28;20175;-73
2023/09/23 08:21:53;;;;;;;1.10;1.07;;;;;;;;;;4974522;28;20246;-73
2023/09/23 08:24:19;;;;;;;9.80;1.53;;;;;;;;;;4958780;28;20187;-73
2023/09/23 08:26:44;;;;;;;1.20;1.10;;;;;;;;;;4950014;28;20249;-73
2023/09/23 08:29:09;;;;;;;1.40;1.20;;;;;;;;;;4960227;28;20188;-73
2023/09/23 08:31:34;;;;;;;4.67;1.60;;;;;;;;;;4956146;28;20183;-73
2023/09/23 08:34:00;;;;;;;1.60;1.40;;;;;;;;;;4951082;28;20202;-73
2023/09/23 08:36:25;;;;;;;2.50;1.10;;;;;;;;;;4970592;28;20266;-73
2023/09/23 08:38:50;;;;;;;1.47;1.37;;;;;;;;;;4952973;28;20251;-73
2023/09/23 08:41:20;;;;;;;1.23;1.13;;;;;;;;;;4970186;28;20183;-73
2023/09/23 08:43:47;;;;;;;2.23;1.10;;;;;;;;;;4951017;28;20236;-73
2023/09/23 08:46:13;;;;;;;4.23;1.30;;;;;;;;;;4953696;28;20204;-74
2023/09/23 08:48:38;;;;;;;1.63;1.20;;;;;;;;;;4950085;28;20195;-74
2023/09/23 08:51:06;;;;;;;1.83;1.30;;;;;;;;;;4954116;28;20186;-73
2023/09/23 08:53:33;;;;;;;2.80;1.23;;;;;;;;;;4970651;28;20243;-74
2023/09/23 08:55:59;;;;;;;2.20;1.20;;;;;;;;;;4971925;28;20188;-74
2023/09/23 08:58:24;;;;;;;1.30;1.00;;;;;;;;;;4955308;28;20338;-73
2023/09/23 09:00:52;;;;;;;2.97;1.20;;;;;;;;;;4952272;28;20290;-74
2023/09/23 09:03:17;;;;;;;0.83;0.83;;;;;;;;;;4953073;28;20187;-74
2023/09/23 09:05:43;;;;;;;2.63;1.23;;;;;;;;;;4966642;28;20191;-74
2023/09/23 09:08:09;;;;;;;2.60;1.33;;;;;;;;;;4968616;28;20184;-73
2023/09/23 09:10:34;;;;;;;2.63;1.20;;;;;;;;;;4957559;28;20186;-74
2023/09/23 09:13:00;;;;;;;1.47;1.10;;;;;;;;;;4970901;28;20220;-74
2023/09/23 09:15:26;;;;;;;2.17;1.30;;;;;;;;;;4953138;28;20177;-74
2023/09/23 09:17:51;;;;;;;1.17;1.10;;;;;;;;;;4967037;28;20196;-74
2023/09/23 09:20:16;;;;;;;1.63;1.23;;;;;;;;;;4953693;28;20185;-74
2023/09/23 09:22:45;;;;;;;2.53;1.23;;;;;;;;;;4955282;28;20213;-74
2023/09/23 09:25:11;;;;;;;3.87;1.50;;;;;;;;;;4967931;28;20226;-74
2023/09/23 09:27:37;;;;;;;2.43;1.20;;;;;;;;;;4969000;28;20180;-74
2023/09/23 09:30:03;;;;;;;5.30;1.37;;;;;;;;;;4968902;28;20191;-74
2023/09/23 09:32:29;;;;;;;3.70;1.20;;;;;;;;;;4970739;28;20217;-74
2023/09/23 09:34:57;;;;;;;2.13;1.37;;;;;;;;;;4956917;28;20247;-74
2023/09/23 09:37:25;;;;;;;5.10;1.50;;;;;;;;;;4950793;28;20254;-74
2023/09/23 09:40:00;;;;;;;4.60;1.20;;;;;;;;;;4950935;28;20217;-74
2023/09/23 09:42:30;;;;;;;2.80;0.90;;;;;;;;;;4957873;28;20193;-74
2023/09/23 09:44:56;;;;;;;1.67;1.47;;;;;;;;;;4953760;28;20262;-74
2023/09/23 09:47:22;;;;;;;1.93;0.80;;;;;;;;;;4971095;28;20268;-74
2023/09/23 09:49:49;;;;;;;2.57;1.17;;;;;;;;;;4950808;28;20192;-74
2023/09/23 09:52:15;;;;;;;1.93;0.87;;;;;;;;;;4959076;28;20191;-75
2023/09/23 09:54:41;;;;;;;1.00;0.90;;;;;;;;;;4951312;28;20173;-74
2023/09/23 09:57:07;;;;;;;2.03;1.20;;;;;;;;;;4968170;28;20192;-75
2023/09/23 09:59:33;;;;;;;2.17;0.93;;;;;;;;;;4952400;28;20239;-75
2023/09/23 10:01:59;;;;;;;1.57;1.00;;;;;;;;;;4952859;28;20253;-74
2023/09/23 10:04:30;;;;;;;1.53;1.03;;;;;;;;;;4958001;28;20275;-75
2023/09/23 10:06:56;;;;;;;4.20;1.10;;;;;;;;;;4950518;28;20202;-75
2023/09/23 10:09:31;;;;;;;1.77;1.00;;;;;;;;;;4959468;28;20189;-75
2023/09/23 10:11:58;;;;;;;1.10;1.10;;;;;;;;;;4976478;28;20248;-75
2023/09/23 10:14:24;;;;;;;3.63;1.00;;;;;;;;;;4959903;28;20204;-75
2023/09/23 10:16:50;;;;;;;1.73;1.20;;;;;;;;;;4970449;28;20193;-74
2023/09/23 10:19:15;;;;;;;2.10;1.20;;;;;;;;;;4962129;28;20253;-75
2023/09/23 10:21:43;;;;;;;1.70;1.27;;;;;;;;;;4963194;28;20179;-75
2023/09/23 10:24:09;;;;;;;2.00;1.23;;;;;;;;;;4947898;28;20277;-75
2023/09/23 10:26:39;;;;;;;1.60;1.30;;;;;;;;;;4973099;28;20319;-75
2023/09/23 10:29:05;;;;;;;4.60;1.07;;;;;;;;;;4958134;28;20234;-75
2023/09/23 10:31:31;;;;;;;3.00;1.10;;;;;;;;;;4974989;28;20191;-75
2023/09/23 10:33:56;;;;;;;1.43;1.10;;;;;;;;;;4965978;28;20240;-75
2023/09/23 10:36:22;;;;;;;2.50;1.00;;;;;;;;;;4956471;28;20215;-75
2023/09/23 10:38:48;;;;;;;1.77;1.10;;;;;;;;;;4954340;28;20184;-75
2023/09/23 10:41:13;;;;;;;1.33;1.23;;;;;;;;;;4954081;28;20180;-75
2023/09/23 10:43:39;;;;;;;1.23;0.90;;;;;;;;;;4961736;28;20246;-75
2023/09/23 10:46:05;;;;;;;2.33;1.20;;;;;;;;;;4971262;28;20189;-75
2023/09/23 10:48:31;;;;;;;2.00;1.30;;;;;;;;;;4958854;28;20251;-75
2023/09/23 10:50:56;;;;;;;1.30;1.00;;;;;;;;;;4959999;28;20203;-75
2023/09/23 10:53:21;;;;;;;1.57;1.07;;;;;;;;;;4958466;28;20679;-75
2023/09/23 10:55:47;;;;;;;1.70;1.10;;;;;;;;;;4973183;28;20195;-75
2023/09/23 10:58:13;;;;;;;1.47;1.03;;;;;;;;;;4967523;28;20285;-75
2023/09/23 11:00:39;;;;;;;1.90;1.10;;;;;;;;;;4965497;28;20217;-76
2023/09/23 11:03:08;;;;;;;2.40;1.00;;;;;;;;;;4957455;28;20241;-75
2023/09/23 11:05:37;;;;;;;1.50;0.97;;;;;;;;;;4961985;28;20216;-75
2023/09/23 11:08:02;;;;;;;2.57;0.97;;;;;;;;;;4973796;28;20267;-75
2023/09/23 11:10:27;;;;;;;2.70;1.30;;;;;;;;;;4956403;28;20274;-75
2023/09/23 11:12:56;;;;;;;0.97;0.87;;;;;;;;;;4975350;28;20212;-75
2023/09/23 11:15:21;;;;;;;1.80;0.93;;;;;;;;;;4974480;28;20191;-75
2023/09/23 11:17:47;;;;;;;1.50;1.00;;;;;;;;;;4955021;28;20179;-76
2023/09/23 11:20:13;;;;;;;1.73;1.10;;;;;;;;;;4961064;28;20198;-75
2023/09/23 11:22:43;;;;;;;0.73;0.73;;;;;;;;;;4963325;28;20229;-76
2023/09/23 11:25:09;;;;;;;2.57;0.87;;;;;;;;;;4977990;28;20205;-76
2023/09/23 11:27:34;;;;;;;1.00;0.90;;;;;;;;;;4972587;28;20190;-76
2023/09/23 11:29:59;;;;;;;1.40;1.30;;;;;;;;;;4977375;28;20239;-75
2023/09/23 11:32:25;;;;;;;1.37;0.90;;;;;;;;;;4958418;28;20188;-75
2023/09/23 11:34:51;;;;;;;1.60;1.07;;;;;;;;;;4954215;28;20193;-76
2023/09/23 11:37:17;;;;;;;1.37;1.10;;;;;;;;;;4972951;28;20181;-76
2023/09/23 11:39:42;;;;;;;1.13;1.00;;;;;;;;;;4969146;28;20197;-76
2023/09/23 11:42:07;;;;;;;1.30;1.17;;;;;;;;;;4957288;28;20182;-76
2023/09/23 11:44:34;;;;;;;1.73;1.00;;;;;;;;;;4973806;28;20200;-76
2023/09/23 11:47:00;;;;;;;2.30;1.10;;;;;;;;;;4971388;28;20262;-76
2023/09/23 11:49:25;;;;;;;1.00;0.90;;;;;;;;;;4955987;28;20278;-76
2023/09/23 11:51:51;;;;;;;3.70;1.17;;;;;;;;;;4953070;28;20220;-76
2023/09/23 11:54:16;;;;;;;2.03;1.13;;;;;;;;;;4962311;28;20314;-75
2023/09/23 11:56:41;;;;;;;1.83;1.20;;;;;;;;;;4973983;28;20186;-76
2023/09/23 11:59:07;;;;;;;0.90;0.80;;;;;;;;;;4956559;28;20218;-76
2023/09/23 12:01:32;;;;;;;1.23;0.90;;;;;;;;;;4968754;28;20179;-76
2023/09/23 12:03:58;;;;;;;1.33;1.03;;;;;;;;;;4972384;28;20183;-76
2023/09/23 12:06:23;;;;;;;2.17;1.30;;;;;;;;;;4955698;28;20175;-76
2023/09/23 12:08:48;;;;;;;2.63;1.07;;;;;;;;;;4954826;28;20196;-76
2023/09/23 12:11:14;;;;;;;2.63;0.97;;;;;;;;;;4968648;28;20650;-76
2023/09/23 12:13:39;;;;;;;2.17;1.20;;;;;;;;;;4955319;28;20235;-76
2023/09/23 12:16:04;;;;;;;1.30;1.20;;;;;;;;;;4956060;28;20182;-76
2023/09/23 12:18:29;;;;;;;6.37;1.47;;;;;;;;;;4954891;28;20173;-76
2023/09/23 12:20:55;;;;;;;2.17;1.17;;;;;;;;;;4953472;28;20266;-76
2023/09/23 12:23:20;;;;;;;1.03;0.87;;;;;;;;;;4971229;28;20223;-76
2023/09/23 12:25:45;;;;;;;1.40;1.30;;;;;;;;;;4964854;28;20185;-76
2023/09/23 12:28:11;;;;;;;1.60;1.27;;;;;;;;;;4955170;28;20188;-76
2023/09/23 12:30:36;;;;;;;1.60;1.07;;;;;;;;;;4955237;28;20199;-76
2023/09/23 12:33:02;;;;;;;1.97;1.10;;;;;;;;;;4956436;28;20239;-76
2023/09/23 12:35:27;;;;;;;3.17;1.13;;;;;;;;;;4971080;28;20183;-76
2023/09/23 12:37:52;;;;;;;3.47;1.40;;;;;;;;;;4970203;28;20232;-77
2023/09/23 12:40:19;;;;;;;5.13;1.67;;;;;;;;;;4954722;28;20189;-76
2023/09/23 12:42:44;;;;;;;3.00;1.10;;;;;;;;;;4965881;28;20180;-76
2023/09/23 12:45:10;;;;;;;1.20;1.10;;;;;;;;;;4956157;28;20186;-76
2023/09/23 12:47:35;;;;;;;1.53;1.30;;;;;;;;;;4948653;28;20189;-76
2023/09/23 12:50:01;;;;;;;2.37;1.10;;;;;;;;;;4957253;28;20203;-76
2023/09/23 12:52:26;;;;;;;1.93;1.13;;;;;;;;;;4957730;28;20235;-76
2023/09/23 12:54:51;;;;;;;1.27;1.17;;;;;;;;;;4968968;28;20230;-76
2023/09/23 12:57:16;;;;;;;1.60;1.00;;;;;;;;;;4969418;28;20199;-76
2023/09/23 12:59:42;;;;;;;3.03;1.37;;;;;;;;;;4954159;28;20241;-76
2023/09/23 13:02:07;;;;;;;2.07;1.37;;;;;;;;;;4958127;28;20186;-76
2023/09/23 13:04:32;;;;;;;0.80;0.80;;;;;;;;;;4957720;28;20184;-76
2023/09/23 13:06:59;;;;;;;1.13;1.10;;;;;;;;;;4947832;28;20261;-77
2023/09/23 13:09:24;;;;;;;3.43;1.20;;;;;;;;;;4968595;28;20181;-76
2023/09/23 13:11:49;;;;;;;2.33;1.33;;;;;;;;;;4951537;28;20258;-76
2023/09/23 13:14:16;;;;;;;2.13;1.50;;;;;;;;;;4953787;28;20210;-77
2023/09/23 13:16:41;;;;;;;1.43;0.73;;;;;;;;;;4967991;28;20189;-77
2023/09/23 13:19:07;;;;;;;1.60;1.40;;;;;;;;;;4967574;28;20184;-77
2023/09/23 13:21:32;;;;;;;2.83;1.03;;;;;;;;;;4954034;28;20246;-77
2023/09/23 13:23:57;;;;;;;1.20;1.10;;;;;;;;;;4963555;28;20279;-77
2023/09/23 13:26:23;;;;;;;2.00;1.10;;;;;;;;;;4975400;28;20222;-76
2023/09/23 13:28:48;;;;;;;2.47;1.10;;;;;;;;;;4954812;28;20181;-76
2023/09/23 13:31:13;;;;;;;2.00;1.30;;;;;;;;;;4969928;28;20233;-76
2023/09/23 13:33:38;;;;;;;3.53;1.47;;;;;;;;;;4951590;28;20285;-78
2023/09/23 13:36:04;;;;;;;1.87;1.53;;;;;;;;;;4969565;28;20184;-77
2023/09/23 13:38:30;;;;;;;1.13;1.00;;;;;;;;;;4955473;28;20318;-77
2023/09/23 13:40:55;;;;;;;1.23;1.13;;;;;;;;;;4969866;28;20188;-77
2023/09/23 13:43:20;;;;;;;2.13;1.57;;;;;;;;;;4968953;28;20186;-75
2023/09/23 13:45:46;;;;;;;1.97;1.10;;;;;;;;;;4976230;28;20242;-75
2023/09/23 13:48:11;;;;;;;1.97;1.30;;;;;;;;;;4953107;28;20189;-76
2023/09/23 13:50:37;;;;;;;0.97;0.90;;;;;;;;;;4969796;28;20183;-78
2023/09/23 13:53:02;;;;;;;3.07;2.77;;;;;;;;;;4953528;28;20229;-77
2023/09/23 13:55:28;;;;;;;2.43;1.50;;;;;;;;;;4952723;28;20186;-75
2023/09/23 13:57:53;;;;;;;1.03;0.93;;;;;;;;;;4953055;28;20188;-75
2023/09/23 14:00:19;;;;;;;2.27;1.50;;;;;;;;;;4969573;28;20249;-75
2023/09/23 14:02:44;;;;;;;3.43;1.20;;;;;;;;;;4955895;28;20193;-75
2023/09/23 14:05:10;;;;;;;2.57;1.53;;;;;;;;;;4953779;28;20204;-75
2023/09/23 14:07:36;;;;;;;1.10;0.90;;;;;;;;;;4970173;28;20171;-76
2023/09/23 14:10:03;;;;;;;3.40;1.10;;;;;;;;;;4969269;28;20191;-75
2023/09/23 14:12:28;;;;;;;1.43;1.30;;;;;;;;;;4966715;28;20179;-75
2023/09/23 14:14:53;;;;;;;2.00;1.13;;;;;;;;;;4950687;28;20189;-76
2023/09/23 14:17:22;;;;;;;1.53;1.23;;;;;;;;;;4955759;28;20252;-75
2023/09/23 14:19:47;;;;;;;2.30;1.33;;;;;;;;;;4969875;28;20296;-75
2023/09/23 14:22:12;;;;;;;1.77;1.00;;;;;;;;;;4951517;28;20292;-75
2023/09/23 14:24:37;;;;;;;1.30;1.20;;;;;;;;;;4969460;28;20177;-75
2023/09/23 14:27:03;;;;;;;1.60;1.20;;;;;;;;;;4953043;28;20191;-75
2023/09/23 14:29:28;;;;;;;1.70;0.90;;;;;;;;;;4952227;28;20319;-75
2023/09/23 14:31:54;;;;;;;1.50;1.23;;;;;;;;;;4950751;28;20188;-76
2023/09/23 14:34:19;;;;;;;1.23;1.10;;;;;;;;;;4955719;28;20207;-77
2023/09/23 14:36:44;;;;;;;1.20;1.10;;;;;;;;;;4960863;28;20177;-77